createdAt,value
2022-11-15T00:01:19.035Z,24.05
2022-11-15T00:03:48.910Z,24.23
2022-11-15T00:06:16.911Z,25.63
2022-11-15T00:08:45.347Z,25.38
2022-11-15T00:11:14.428Z,22.30
2022-11-15T00:13:43.244Z,22.42
2022-11-15T00:16:11.513Z,21.58
2022-11-15T00:18:40.175Z,20.90
2022-11-15T00:21:12.195Z,22.33
2022-11-15T00:23:40.641Z,21.23
2022-11-15T00:26:09.330Z,19.75
2022-11-15T00:28:37.882Z,22.17
2022-11-15T00:31:07.532Z,20.95
2022-11-15T00:33:36.125Z,18.50
2022-11-15T00:36:05.642Z,21.75
2022-11-15T00:38:35.646Z,19.42
2022-11-15T00:41:09.049Z,19.58
2022-11-15T00:43:38.460Z,19.88
2022-11-15T00:46:07.050Z,18.00
2022-11-15T00:48:35.369Z,18.17
2022-11-15T00:51:03.817Z,15.82
2022-11-15T00:53:32.616Z,18.30
2022-11-15T00:56:02.333Z,16.70
2022-11-15T00:58:30.764Z,18.83
2022-11-15T01:00:58.875Z,17.15
2022-11-15T01:03:27.369Z,18.98
2022-11-15T01:05:55.626Z,19.83
2022-11-15T01:08:24.030Z,19.52
2022-11-15T01:10:52.091Z,16.92
2022-11-15T01:13:21.810Z,15.80
2022-11-15T01:15:49.790Z,16.80
2022-11-15T01:18:18.099Z,15.77
2022-11-15T01:20:46.303Z,17.27
2022-11-15T01:23:14.669Z,16.63
2022-11-15T01:25:42.796Z,16.73
2022-11-15T01:28:11.206Z,16.85
2022-11-15T01:30:40.710Z,15.93
2022-11-15T01:33:09.111Z,16.65
2022-11-15T01:35:40.852Z,16.58
2022-11-15T01:38:09.539Z,16.60
2022-11-15T01:40:37.539Z,17.10
2022-11-15T01:43:21.355Z,16.25
2022-11-15T01:45:54.619Z,16.90
2022-11-15T01:48:23.278Z,16.48
2022-11-15T01:50:52.117Z,16.33
2022-11-15T01:53:22.273Z,17.02
2022-11-15T01:55:50.321Z,15.60
2022-11-15T01:58:18.974Z,16.48
2022-11-15T02:00:48.837Z,16.67
2022-11-15T02:03:18.831Z,16.40
2022-11-15T02:05:46.820Z,16.98
2022-11-15T02:08:21.203Z,16.08
2022-11-15T02:10:49.320Z,16.73
2022-11-15T02:13:18.660Z,18.10
2022-11-15T02:15:55.314Z,18.40
2022-11-15T02:18:30.283Z,17.25
2022-11-15T02:21:08.424Z,18.73
2022-11-15T02:24:18.280Z,17.58
2022-11-15T02:27:33.057Z,16.48
2022-11-15T02:30:21.161Z,17.30
2022-11-15T02:32:52.890Z,17.25
2022-11-15T02:35:28.457Z,19.08
2022-11-15T02:37:59.222Z,16.35
2022-11-15T02:40:36.390Z,16.40
2022-11-15T02:43:27.654Z,15.45
2022-11-15T02:48:28.168Z,15.57
2022-11-15T02:50:56.677Z,16.15
2022-11-15T02:53:26.666Z,17.38
2022-11-15T02:55:56.207Z,16.92
2022-11-15T02:58:37.635Z,16.90
2022-11-15T03:01:14.565Z,16.92
2022-11-15T03:03:51.407Z,17.77
2022-11-15T03:06:27.751Z,15.15
2022-11-15T03:09:04.424Z,13.73
2022-11-15T03:11:35.076Z,15.25
2022-11-15T03:14:07.196Z,13.47
2022-11-15T03:16:39.728Z,15.07
2022-11-15T03:19:12.799Z,14.77
2022-11-15T03:21:42.322Z,13.57
2022-11-15T03:24:11.005Z,16.10
2022-11-15T03:26:41.561Z,14.40
2022-11-15T03:29:14.031Z,14.90
2022-11-15T03:31:51.191Z,14.50
2022-11-15T03:34:26.742Z,14.07
2022-11-15T03:36:55.292Z,13.30
2022-11-15T03:39:24.270Z,15.38
2022-11-15T03:41:59.458Z,17.98
2022-11-15T03:44:37.293Z,14.55
2022-11-15T03:47:11.187Z,14.38
2022-11-15T03:49:41.685Z,14.38
2022-11-15T03:52:12.321Z,14.82
2022-11-15T03:54:50.298Z,15.00
2022-11-15T03:57:18.847Z,14.77
2022-11-15T03:59:46.881Z,15.90
2022-11-15T04:02:17.628Z,14.43
2022-11-15T04:04:45.693Z,14.25
2022-11-15T04:07:14.571Z,13.85
2022-11-15T04:09:57.223Z,14.45
2022-11-15T04:12:31.841Z,14.60
2022-11-15T04:15:19.130Z,16.70
2022-11-15T04:17:50.422Z,15.10
2022-11-15T04:20:37.518Z,16.10
2022-11-15T04:23:25.217Z,15.50
2022-11-15T04:25:54.402Z,15.98
2022-11-15T04:28:23.005Z,16.15
2022-11-15T04:30:51.049Z,16.02
2022-11-15T04:33:21.128Z,16.35
2022-11-15T04:36:09.479Z,16.02
2022-11-15T04:38:38.643Z,15.23
2022-11-15T04:41:06.809Z,15.75
2022-11-15T04:43:35.444Z,15.15
2022-11-15T04:46:03.600Z,14.20
2022-11-15T04:48:33.490Z,16.40
2022-11-15T04:51:01.578Z,15.63
2022-11-15T04:53:30.416Z,15.10
2022-11-15T04:55:58.891Z,16.65
2022-11-15T04:58:27.217Z,17.23
2022-11-15T05:00:55.359Z,17.60
2022-11-15T05:03:41.393Z,17.83
2022-11-15T05:06:10.987Z,17.92
2022-11-15T05:08:39.409Z,19.15
2022-11-15T05:11:07.859Z,18.83
2022-11-15T05:13:36.254Z,16.48
2022-11-15T05:16:04.486Z,16.92
2022-11-15T05:18:32.906Z,16.88
2022-11-15T05:21:05.498Z,17.65
2022-11-15T05:23:35.646Z,16.90
2022-11-15T05:26:08.988Z,17.23
2022-11-15T05:28:38.210Z,17.40
2022-11-15T05:31:07.983Z,16.90
2022-11-15T05:33:36.902Z,17.77
2022-11-15T05:36:07.617Z,17.60
2022-11-15T05:38:37.704Z,17.33
2022-11-15T05:41:06.743Z,17.67
2022-11-15T05:43:37.668Z,18.08
2022-11-15T05:46:07.032Z,17.33
2022-11-15T05:48:36.613Z,16.20
2022-11-15T05:51:05.050Z,16.95
2022-11-15T05:53:34.007Z,17.98
2022-11-15T05:56:04.801Z,17.77
2022-11-15T05:58:33.295Z,18.92
2022-11-15T06:01:01.954Z,17.95
2022-11-15T06:03:30.717Z,19.80
2022-11-15T06:05:59.215Z,18.05
2022-11-15T06:08:27.581Z,21.80
2022-11-15T06:10:55.898Z,21.35
2022-11-15T06:13:25.700Z,29.23
2022-11-15T06:15:57.578Z,25.75
2022-11-15T06:18:26.035Z,22.15
2022-11-15T06:20:54.224Z,20.40
2022-11-15T06:23:22.594Z,22.98
2022-11-15T06:25:50.858Z,23.48
2022-11-15T06:28:19.155Z,23.40
2022-11-15T06:30:52.987Z,22.30
2022-11-15T06:33:21.803Z,19.73
2022-11-15T06:35:49.962Z,20.00
2022-11-15T06:38:18.429Z,23.55
2022-11-15T06:40:46.434Z,22.15
2022-11-15T06:43:15.725Z,22.40
2022-11-15T06:45:43.857Z,22.15
2022-11-15T06:48:13.649Z,27.77
2022-11-15T06:50:41.683Z,30.80
2022-11-15T06:53:10.157Z,37.40
2022-11-15T06:55:39.772Z,31.75
2022-11-15T06:58:08.156Z,29.30
2022-11-15T07:00:36.250Z,29.88
2022-11-15T07:03:05.097Z,31.90
2022-11-15T07:05:34.492Z,29.65
2022-11-15T07:08:03.013Z,29.73
2022-11-15T07:10:31.089Z,29.13
2022-11-15T07:12:59.469Z,27.63
2022-11-15T07:15:28.029Z,27.45
2022-11-15T07:17:56.568Z,25.52
2022-11-15T07:20:24.812Z,26.25
2022-11-15T07:23:01.972Z,25.10
2022-11-15T07:25:30.077Z,25.88
2022-11-15T07:27:58.907Z,25.70
2022-11-15T07:30:27.905Z,26.67
2022-11-15T07:32:56.468Z,26.70
2022-11-15T07:35:24.984Z,29.02
2022-11-15T07:37:58.800Z,26.98
2022-11-15T07:40:27.431Z,24.50
2022-11-15T07:43:01.689Z,31.80
2022-11-15T07:45:29.750Z,25.13
2022-11-15T07:47:58.385Z,23.70
2022-11-15T07:50:26.484Z,25.40
2022-11-15T07:53:00.468Z,23.70
2022-11-15T07:55:30.726Z,23.02
2022-11-15T07:58:03.409Z,21.05
2022-11-15T08:00:31.922Z,21.63
2022-11-15T08:03:04.653Z,21.65
2022-11-15T08:05:33.188Z,20.52
2022-11-15T08:08:03.058Z,20.73
2022-11-15T08:10:34.225Z,22.27
2022-11-15T08:13:07.699Z,20.13
2022-11-15T08:15:37.028Z,21.80
2022-11-15T08:18:07.167Z,21.08
2022-11-15T08:20:35.252Z,19.23
2022-11-15T08:23:06.448Z,19.73
2022-11-15T08:25:35.916Z,20.40
2022-11-15T08:28:05.676Z,20.98
2022-11-15T08:30:37.366Z,22.35
2022-11-15T08:33:06.087Z,20.95
2022-11-15T08:35:34.214Z,22.85
2022-11-15T08:38:04.135Z,22.50
2022-11-15T08:40:32.250Z,21.05
2022-11-15T08:43:03.659Z,21.17
2022-11-15T08:45:32.071Z,19.75
2022-11-15T08:48:03.120Z,19.88
2022-11-15T08:50:31.167Z,19.38
2022-11-15T08:52:59.792Z,19.05
2022-11-15T08:55:29.484Z,18.95
2022-11-15T08:57:59.314Z,21.23
2022-11-15T09:00:27.587Z,19.85
2022-11-15T09:02:55.984Z,20.70
2022-11-15T09:05:24.125Z,20.30
2022-11-15T09:07:55.152Z,21.83
2022-11-15T09:10:23.303Z,18.00
2022-11-15T09:12:53.193Z,19.05
2022-11-15T09:15:21.882Z,24.25
2022-11-15T09:17:50.307Z,21.58
2022-11-15T09:20:18.710Z,17.23
2022-11-15T09:22:47.213Z,17.02
2022-11-15T09:25:15.758Z,20.88
2022-11-15T09:27:44.095Z,20.55
2022-11-15T09:30:14.766Z,17.38
2022-11-15T09:32:43.142Z,19.08
2022-11-15T09:35:11.380Z,16.45
2022-11-15T09:37:39.871Z,16.85
2022-11-15T09:40:10.568Z,14.60
2022-11-15T09:42:51.145Z,19.77
2022-11-15T09:45:23.172Z,14.85
2022-11-15T09:48:01.843Z,16.73
2022-11-15T09:50:36.665Z,18.83
2022-11-15T09:53:05.298Z,31.33
2022-11-15T09:55:39.916Z,25.77
2022-11-15T09:58:16.182Z,20.65
2022-11-15T10:00:49.708Z,20.13
2022-11-15T10:03:20.431Z,20.85
2022-11-15T10:05:50.822Z,18.63
2022-11-15T10:11:09.616Z,13.48
2022-11-15T10:16:26.960Z,12.90
2022-11-15T10:19:02.333Z,12.55
2022-11-15T10:21:36.628Z,13.88
2022-11-15T10:24:12.840Z,13.38
2022-11-15T10:26:41.389Z,14.75
2022-11-15T10:29:09.685Z,14.63
2022-11-15T10:31:41.755Z,15.45
2022-11-15T10:34:15.152Z,15.13
2022-11-15T10:36:50.288Z,15.40
2022-11-15T10:39:18.907Z,17.05
2022-11-15T10:41:47.162Z,17.83
2022-11-15T10:44:29.300Z,17.75
2022-11-15T10:47:24.056Z,19.08
2022-11-15T10:50:00.575Z,17.80
2022-11-15T10:52:29.529Z,18.08
2022-11-15T10:54:59.862Z,16.77
2022-11-15T10:57:29.801Z,18.08
2022-11-15T11:00:00.749Z,18.75
2022-11-15T11:05:00.778Z,17.42
2022-11-15T11:07:30.520Z,16.73
2022-11-15T11:10:00.574Z,15.57
2022-11-15T11:12:33.505Z,17.15
2022-11-15T11:15:03.490Z,18.27
2022-11-15T11:17:43.132Z,17.70
2022-11-15T11:20:19.597Z,16.80
2022-11-15T11:23:00.527Z,16.80
2022-11-15T11:25:35.390Z,16.42
2022-11-15T11:28:25.780Z,17.02
2022-11-15T11:31:02.904Z,17.42
2022-11-15T11:33:34.995Z,16.63
2022-11-15T11:36:12.183Z,16.65
2022-11-15T11:38:49.525Z,16.88
2022-11-15T11:41:26.543Z,16.42
2022-11-15T11:44:01.932Z,17.95
2022-11-15T11:46:50.625Z,17.52
2022-11-15T11:49:24.119Z,18.65
2022-11-15T11:51:57.628Z,19.60
2022-11-15T11:54:28.984Z,18.98
2022-11-15T11:56:59.486Z,18.55
2022-11-15T11:59:34.371Z,19.30
2022-11-15T12:02:05.044Z,19.80
2022-11-15T12:04:39.948Z,19.52
2022-11-15T12:07:13.465Z,20.20
2022-11-15T12:09:43.977Z,19.35
2022-11-15T12:12:17.709Z,18.88
2022-11-15T12:14:49.049Z,18.85
2022-11-15T12:17:20.173Z,18.95
2022-11-15T12:19:49.661Z,18.80
2022-11-15T12:22:22.099Z,19.13
2022-11-15T12:24:54.588Z,20.23
2022-11-15T12:27:31.555Z,19.92
2022-11-15T12:30:02.735Z,19.23
2022-11-15T12:32:33.902Z,20.17
2022-11-15T12:35:04.818Z,21.85
2022-11-15T12:43:42.804Z,20.70
2022-11-15T12:46:15.811Z,19.98
2022-11-15T12:48:50.311Z,20.45
2022-11-15T12:51:22.501Z,19.50
2022-11-15T12:53:51.296Z,18.20
2022-11-15T12:56:26.663Z,19.63
2022-11-15T12:58:57.874Z,21.48
2022-11-15T13:02:00.404Z,21.77
2022-11-15T13:04:31.141Z,20.60
2022-11-15T13:07:02.358Z,21.80
2022-11-15T13:09:53.519Z,23.05
2022-11-15T13:12:57.016Z,24.95
2022-11-15T13:15:43.011Z,24.00
2022-11-15T13:18:35.345Z,28.35
2022-11-15T13:21:27.261Z,25.80
2022-11-15T13:23:57.650Z,23.13
2022-11-15T13:26:26.615Z,23.45
2022-11-15T13:28:56.480Z,23.67
2022-11-15T13:31:30.998Z,23.42
2022-11-15T13:34:02.516Z,22.50
2022-11-15T13:36:34.293Z,21.33
2022-11-15T13:39:05.651Z,22.85
2022-11-15T13:41:35.479Z,22.60
2022-11-15T13:44:04.908Z,22.80
2022-11-15T13:46:34.767Z,23.17
2022-11-15T13:49:04.347Z,27.00
2022-11-15T13:51:37.904Z,26.27
2022-11-15T13:54:14.974Z,28.45
2022-11-15T13:56:45.434Z,30.80
2022-11-15T13:59:17.892Z,32.42
2022-11-15T14:01:46.501Z,32.38
2022-11-15T14:04:16.255Z,30.25
2022-11-15T14:06:49.572Z,29.08
2022-11-15T14:09:36.625Z,28.65
2022-11-15T14:12:24.739Z,27.75
2022-11-15T14:14:53.191Z,38.35
2022-11-15T14:17:24.754Z,36.78
2022-11-15T14:22:23.678Z,44.53
2022-11-15T14:25:17.333Z,35.03
2022-11-15T14:27:47.404Z,36.35
2022-11-15T14:30:16.973Z,33.45
2022-11-15T14:32:47.625Z,34.20
2022-11-15T14:35:17.573Z,34.28
2022-11-15T14:37:46.030Z,35.85
2022-11-15T14:40:18.255Z,34.83
2022-11-15T14:42:47.849Z,33.90
2022-11-15T14:45:18.127Z,35.97
2022-11-15T14:47:46.765Z,34.43
2022-11-15T14:50:15.996Z,34.05
2022-11-15T14:52:44.788Z,35.50
2022-11-15T14:55:19.664Z,34.35
2022-11-15T14:57:48.180Z,34.00
2022-11-15T15:00:17.123Z,35.42
2022-11-15T15:02:47.244Z,35.95
2022-11-15T15:05:17.329Z,33.47
2022-11-15T15:07:45.850Z,34.03
2022-11-15T15:10:38.947Z,45.97
2022-11-15T15:13:05.627Z,38.50
2022-11-15T15:15:35.206Z,35.35
2022-11-15T15:18:05.667Z,36.42
2022-11-15T15:20:34.095Z,37.47
2022-11-15T15:23:02.448Z,52.72
2022-11-15T15:25:31.430Z,44.45
2022-11-15T15:28:00.013Z,46.65
2022-11-15T15:30:31.193Z,37.45
2022-11-15T15:35:31.342Z,36.85
2022-11-15T15:37:59.954Z,37.63
2022-11-15T15:40:30.648Z,44.05
2022-11-15T15:42:59.025Z,40.40
2022-11-15T15:45:29.277Z,39.10
2022-11-15T15:47:57.997Z,39.22
2022-11-15T15:50:27.617Z,39.13
2022-11-15T15:52:57.105Z,38.70
2022-11-15T15:55:25.740Z,36.67
2022-11-15T15:57:54.393Z,33.15
2022-11-15T16:00:24.570Z,35.40
2022-11-15T16:02:54.888Z,34.85
2022-11-15T16:05:23.678Z,33.97
2022-11-15T16:07:52.377Z,31.58
2022-11-15T16:10:24.078Z,33.55
2022-11-15T16:12:53.187Z,32.55
2022-11-15T16:15:22.156Z,32.60
2022-11-15T16:17:52.536Z,33.92
2022-11-15T16:20:32.285Z,37.55
2022-11-15T16:23:05.781Z,38.92
2022-11-15T16:25:39.460Z,39.55
2022-11-15T16:28:15.573Z,34.15
2022-11-15T16:30:43.711Z,37.75
2022-11-15T16:33:13.988Z,45.25
2022-11-15T16:35:43.560Z,35.88
2022-11-15T16:38:15.914Z,35.17
2022-11-15T16:40:44.445Z,35.60
2022-11-15T16:43:13.222Z,34.55
2022-11-15T16:45:41.409Z,34.00
2022-11-15T16:48:21.648Z,33.25
2022-11-15T16:50:51.330Z,34.60
2022-11-15T16:53:19.742Z,37.05
2022-11-15T16:55:48.016Z,38.15
2022-11-15T16:58:16.367Z,37.08
2022-11-15T17:00:44.559Z,39.30
2022-11-15T17:03:13.100Z,37.65
2022-11-15T17:05:41.316Z,47.50
2022-11-15T17:08:11.017Z,40.25
2022-11-15T17:10:41.279Z,35.60
2022-11-15T17:13:10.244Z,35.10
2022-11-15T17:15:38.401Z,35.53
2022-11-15T17:18:07.575Z,36.25
2022-11-15T17:20:35.661Z,38.45
2022-11-15T17:23:04.006Z,41.38
2022-11-15T17:25:33.475Z,41.63
2022-11-15T17:28:02.085Z,41.15
2022-11-15T17:30:30.317Z,42.72
2022-11-15T17:32:58.610Z,54.47
2022-11-15T17:35:29.740Z,77.90
2022-11-15T17:40:26.311Z,51.05
2022-11-15T17:42:57.138Z,50.78
2022-11-15T17:45:25.243Z,69.35
2022-11-15T17:47:53.886Z,50.55
2022-11-15T17:50:22.023Z,53.65
2022-11-15T17:52:50.391Z,52.47
2022-11-15T17:55:18.593Z,53.05
2022-11-15T17:57:46.994Z,50.47
2022-11-15T18:00:19.684Z,47.55
2022-11-15T18:02:48.227Z,50.47
2022-11-15T18:05:16.387Z,48.92
2022-11-15T18:07:44.885Z,48.80
2022-11-15T18:10:13.040Z,50.72
2022-11-15T18:12:42.391Z,53.00
2022-11-15T18:15:10.735Z,50.03
2022-11-15T18:17:40.542Z,52.33
2022-11-15T18:20:10.211Z,53.30
2022-11-15T18:22:38.631Z,47.38
2022-11-15T18:25:07.382Z,45.50
2022-11-15T18:27:35.828Z,50.75
2022-11-15T18:30:03.875Z,43.95
2022-11-15T18:32:32.356Z,45.15
2022-11-15T18:35:01.959Z,43.25
2022-11-15T18:37:30.972Z,46.80
2022-11-15T18:39:59.030Z,41.58
2022-11-15T18:42:27.517Z,39.58
2022-11-15T18:44:55.671Z,41.17
2022-11-15T18:47:24.112Z,37.65
2022-11-15T18:49:52.281Z,36.90
2022-11-15T18:52:22.723Z,42.10
2022-11-15T18:54:50.929Z,47.72
2022-11-15T18:57:19.363Z,43.83
2022-11-15T18:59:47.500Z,41.33
2022-11-15T19:02:15.869Z,43.00
2022-11-15T19:04:43.971Z,40.63
2022-11-15T19:07:12.383Z,40.63
2022-11-15T19:09:41.984Z,37.15
2022-11-15T19:12:10.295Z,37.88
2022-11-15T19:14:38.533Z,34.88
2022-11-15T19:17:07.071Z,39.45
2022-11-15T19:19:35.164Z,48.47
2022-11-15T19:22:03.582Z,45.28
2022-11-15T19:24:31.908Z,47.25
2022-11-15T19:27:01.719Z,47.80
2022-11-15T19:29:29.934Z,47.70
2022-11-15T19:31:58.455Z,43.08
2022-11-15T19:34:26.603Z,47.67
2022-11-15T19:36:55.264Z,46.30
2022-11-15T19:39:23.383Z,45.35
2022-11-15T19:41:51.879Z,50.33
2022-11-15T19:44:22.858Z,53.00
2022-11-15T19:46:51.296Z,51.85
2022-11-15T19:49:19.789Z,60.15
2022-11-15T19:51:48.563Z,84.68
2022-11-15T19:54:17.371Z,57.70
2022-11-15T19:56:45.775Z,55.22
2022-11-15T19:59:14.363Z,56.78
2022-11-15T20:01:44.221Z,57.17
2022-11-15T20:04:12.350Z,56.88
2022-11-15T20:06:42.819Z,100.10
2022-11-15T20:09:13.894Z,54.97
2022-11-15T20:14:11.774Z,56.45
2022-11-15T20:16:40.501Z,53.40
2022-11-15T20:19:10.064Z,54.70
2022-11-15T20:21:38.478Z,67.07
2022-11-15T20:24:07.678Z,52.95
2022-11-15T20:26:36.122Z,53.45
2022-11-15T20:29:04.331Z,53.30
2022-11-15T20:31:32.901Z,50.63
2022-11-15T20:34:01.296Z,52.22
2022-11-15T20:36:31.221Z,47.72
2022-11-15T20:39:00.268Z,56.05
2022-11-15T20:41:28.725Z,55.00
2022-11-15T20:43:56.903Z,56.13
2022-11-15T20:46:25.296Z,103.45
2022-11-15T20:48:53.427Z,56.03
2022-11-15T20:51:21.911Z,52.45
2022-11-15T20:53:51.538Z,53.55
2022-11-15T20:56:21.038Z,52.83
2022-11-15T20:58:50.530Z,51.80
2022-11-15T21:01:23.753Z,50.33
2022-11-15T21:03:52.725Z,53.10
2022-11-15T21:06:21.519Z,51.00
2022-11-15T21:09:09.136Z,51.13
2022-11-15T21:11:55.682Z,48.92
2022-11-15T21:14:23.940Z,47.40
2022-11-15T21:16:52.336Z,47.75
2022-11-15T21:19:25.702Z,45.88
2022-11-15T21:21:56.375Z,47.15
2022-11-15T21:24:26.847Z,47.95
2022-11-15T21:26:55.894Z,52.17
2022-11-15T21:29:24.065Z,52.00
2022-11-15T21:31:53.339Z,50.03
2022-11-15T21:34:21.926Z,52.00
2022-11-15T21:36:50.374Z,53.85
2022-11-15T21:39:18.425Z,54.25
2022-11-15T21:41:48.111Z,52.90
2022-11-15T21:44:16.185Z,55.42
2022-11-15T21:46:44.604Z,53.42
2022-11-15T21:49:12.841Z,51.90
2022-11-15T21:51:41.279Z,51.65
2022-11-15T21:54:09.488Z,50.33
2022-11-15T21:56:38.323Z,54.60
2022-11-15T21:59:07.925Z,57.60
2022-11-15T22:01:53.965Z,53.70
2022-11-15T22:04:24.141Z,53.45
2022-11-15T22:06:52.853Z,54.42
2022-11-15T22:09:21.076Z,55.20
2022-11-15T22:11:49.528Z,54.13
2022-11-15T22:14:19.203Z,53.33
2022-11-15T22:16:47.637Z,57.67
2022-11-15T22:19:15.884Z,56.38
2022-11-15T22:21:44.209Z,56.47
2022-11-15T22:24:12.654Z,55.53
2022-11-15T22:26:41.104Z,52.15
2022-11-15T22:29:09.174Z,50.83
2022-11-15T22:31:39.103Z,53.20
2022-11-15T22:34:07.171Z,51.33
2022-11-15T22:36:52.300Z,50.55
2022-11-15T22:39:23.861Z,50.63
2022-11-15T22:41:53.507Z,48.25
2022-11-15T22:44:22.236Z,49.45
2022-11-15T22:46:52.052Z,50.13
2022-11-15T22:49:20.132Z,49.33
2022-11-15T22:51:51.593Z,49.78
2022-11-15T22:54:19.704Z,48.55
2022-11-15T22:56:48.538Z,49.97
2022-11-15T22:59:16.716Z,47.20
2022-11-15T23:01:45.197Z,47.97
2022-11-15T23:04:14.628Z,48.58
2022-11-15T23:06:43.180Z,46.50
2022-11-15T23:09:11.518Z,46.30
2022-11-15T23:11:57.551Z,43.35
2022-11-15T23:14:25.854Z,47.30
2022-11-15T23:16:54.287Z,50.17
2022-11-15T23:19:24.128Z,49.78
2022-11-15T23:22:10.218Z,50.60
2022-11-15T23:24:38.487Z,49.58
2022-11-15T23:27:08.648Z,52.08
2022-11-15T23:29:58.464Z,67.13
2022-11-15T23:32:44.611Z,49.03
2022-11-15T23:35:14.154Z,45.85
2022-11-15T23:37:42.615Z,44.67
2022-11-15T23:40:12.396Z,46.30
2022-11-15T23:42:40.789Z,43.40
2022-11-15T23:45:09.467Z,40.38
2022-11-15T23:47:37.880Z,40.28
2022-11-15T23:50:06.840Z,37.85
2022-11-15T23:52:36.563Z,37.38
2022-11-15T23:55:05.025Z,40.38
2022-11-15T23:57:33.373Z,43.00
